Lowden, Washington
Current Conditions -  °F | °C
As of 6:53 AM on Friday 28 Nov 2014 (Local Time) from KALW Reporting Station
Overcast Overcast  
Wind Chill: 59°   Ceiling: 5500
Heat Index: 59°   Visibility: 10mi
Dew Point: 43°   Wind: 14mph
Humidity: 55%   Direction: 190°S
Pressure: 29.63"   Gusts: 18mph
Location:  46.1196°N, 118.708°W
Report Text: KALW 281453Z 19012G16KT 10SM OVC055 15/06 A2963 RMK AO2 SLP033 T01500061 56018
Loading
Personal Weather Stations






























Interactive Weather Map New forecast layout! Learn more

10-Day Weather Forecast

Advertisements
Track Severe Weather on mobile